Station History

Weather Underground - logo

Station Historical Data
Daily Summary for July 4, 2017 Units:  English    Metric   Both
« Previous Day
Next Day »
Daily Weekly Monthly Yearly Custom
  High: Low: Average:
Temperature: TemperatureF °F 65.3 °F 84.2 °F
Dew Point: DewpointF °F 44.0 °F 60.5 °F
Humidity: Humidity % 15 % 50 %
Wind Speed: WindSpeedMPH mph 0.0 mph 1.4 mph
Wind Gust: WindSpeedGustMPH mph - -
Wind:- - SSW
Pressure: PressureIn in 29.78 in -
Precipitation: 0.00 in    
Historical Graphs
 
 
Tabular Data for July 4, 2017
Time Temperature Dew Point Pressure Wind Wind Speed Wind Gust Humidity Rainfall Rate (Hourly)
TemperatureF °F DewpointF °F PressureIn in Calm     Humidity % HourlyPrecipIn in
00:03 77.0 °F 64.8 °F 29.85 in Calm     66 % 0.00 in
00:08 76.8 °F 65.0 °F 29.85 in Calm     67 % 0.00 in
00:17 76.1 °F 64.3 °F 29.85 in Calm     67 % 0.00 in
00:22 75.5 °F 63.8 °F 29.86 in Calm     67 % 0.00 in
00:27 75.0 °F 64.1 °F 29.86 in NNE 1.2 mph 1.2 mph 69 % 0.00 in
00:32 74.2 °F 64.2 °F 29.86 in Calm     71 % 0.00 in
00:37 73.6 °F 64.4 °F 29.86 in NNE 1.2 mph   73 % 0.00 in
00:42 73.2 °F 64.0 °F 29.86 in Calm     73 % 0.00 in
00:47 73.1 °F 63.9 °F 29.86 in Calm     73 % 0.00 in
00:52 72.9 °F 64.1 °F 29.86 in Calm     74 % 0.00 in
00:57 72.6 °F 63.8 °F 29.86 in Calm     74 % 0.00 in
01:02 72.3 °F 63.5 °F 29.86 in Calm     74 % 0.00 in
01:07 72.1 °F 63.7 °F 29.86 in Calm     75 % 0.00 in
01:12 72.0 °F 64.0 °F 29.86 in Calm     76 % 0.00 in
01:18 71.9 °F 63.9 °F 29.86 in Calm     76 % 0.00 in
01:23 71.7 °F 63.4 °F 29.86 in Calm     75 % 0.00 in
01:28 71.7 °F 63.7 °F 29.87 in Calm     76 % 0.00 in
01:33 71.6 °F 63.6 °F 29.87 in Calm     76 % 0.00 in
01:38 71.5 °F 63.2 °F 29.87 in NE 1.2 mph 1.2 mph 75 % 0.00 in
01:43 71.4 °F 63.1 °F 29.87 in Calm     75 % 0.00 in
01:48 71.3 °F 63.3 °F 29.87 in Calm     76 % 0.00 in
01:53 71.2 °F 63.2 °F 29.87 in Calm     76 % 0.00 in
01:58 71.1 °F 63.1 °F 29.87 in Calm     76 % 0.00 in
02:03 71.0 °F 62.7 °F 29.87 in NE 1.2 mph   75 % 0.00 in
02:08 71.1 °F 62.8 °F 29.87 in Calm     75 % 0.00 in
02:13 71.2 °F 62.9 °F 29.87 in Calm     75 % 0.00 in
02:18 71.2 °F 62.9 °F 29.87 in Calm     75 % 0.00 in
02:23 71.1 °F 63.1 °F 29.87 in Calm     76 % 0.00 in
02:28 71.0 °F 62.7 °F 29.86 in Calm     75 % 0.00 in
02:33 71.0 °F 63.1 °F 29.87 in Calm     76 % 0.00 in
02:38 71.1 °F 62.8 °F 29.87 in Calm     75 % 0.00 in
02:43 71.2 °F 62.9 °F 29.87 in Calm     75 % 0.00 in
02:48 71.2 °F 62.9 °F 29.87 in Calm     75 % 0.00 in
02:53 71.0 °F 62.3 °F 29.87 in Calm     74 % 0.00 in
02:58 70.7 °F 62.4 °F 29.87 in Calm     75 % 0.00 in
03:03 70.4 °F 62.1 °F 29.87 in Calm     75 % 0.00 in
03:08 70.4 °F 62.1 °F 29.87 in Calm     75 % 0.00 in
03:13 70.4 °F 62.8 °F 29.86 in Calm     77 % 0.00 in
03:18 70.3 °F 62.4 °F 29.86 in Calm     76 % 0.00 in
03:23 70.5 °F 62.2 °F 29.86 in Calm     75 % 0.00 in
03:28 70.3 °F 63.1 °F 29.86 in Calm     78 % 0.00 in
03:33 70.1 °F 62.9 °F 29.86 in Calm     78 % 0.00 in
03:39 69.9 °F 62.7 °F 29.87 in Calm     78 % 0.00 in
03:44 69.7 °F 62.9 °F 29.87 in Calm     79 % 0.00 in
03:49 69.6 °F 62.4 °F 29.86 in Calm     78 % 0.00 in
03:50 69.6 °F 62.8 °F 29.87 in Calm     79 % 0.00 in
03:55 69.5 °F 62.7 °F 29.87 in Calm   0.1 mph 79 % 0.00 in
04:00 69.6 °F 62.8 °F 29.87 in Calm     79 % 0.00 in
04:05 69.6 °F 63.2 °F 29.87 in Calm     80 % 0.00 in
04:10 69.4 °F 63.0 °F 29.86 in Calm     80 % 0.00 in
04:15 69.6 °F 62.8 °F 29.86 in Calm     79 % 0.00 in
04:20 69.6 °F 62.8 °F 29.86 in Calm     79 % 0.00 in
04:25 69.5 °F 63.1 °F 29.86 in Calm     80 % 0.00 in
04:30 69.3 °F 63.2 °F 29.86 in Calm     81 % 0.00 in
04:35 69.0 °F 63.3 °F 29.86 in Calm     82 % 0.00 in
04:40 69.0 °F 62.9 °F 29.87 in Calm     81 % 0.00 in
04:45 68.8 °F 63.1 °F 29.87 in Calm     82 % 0.00 in
04:50 68.5 °F 62.8 °F 29.87 in Calm     82 % 0.00 in
04:55 68.3 °F 62.6 °F 29.87 in Calm     82 % 0.00 in
05:00 68.0 °F 62.6 °F 29.87 in Calm     83 % 0.00 in
05:02 67.9 °F 62.5 °F 29.87 in Calm     83 % 0.00 in
05:07 67.7 °F 62.3 °F 29.87 in Calm     83 % 0.00 in
05:12 67.5 °F 62.2 °F 29.87 in Calm     83 % 0.00 in
05:17 67.3 °F 62.3 °F 29.87 in Calm     84 % 0.00 in
05:22 67.1 °F 62.1 °F 29.88 in Calm     84 % 0.00 in
05:27 66.9 °F 62.2 °F 29.88 in Calm     85 % 0.00 in
05:32 66.8 °F 62.1 °F 29.88 in Calm     85 % 0.00 in
05:37 66.6 °F 61.9 °F 29.88 in Calm     85 % 0.00 in
05:42 66.4 °F 61.8 °F 29.88 in Calm     85 % 0.00 in
05:43 66.4 °F 61.8 °F 29.88 in Calm     85 % 0.00 in
05:48 66.1 °F 61.1 °F 29.88 in NE 1.2 mph   84 % 0.00 in
05:53 65.9 °F 60.9 °F 29.89 in NE 1.2 mph 1.2 mph 84 % 0.00 in
05:58 65.6 °F 60.6 °F 29.88 in Calm     84 % 0.00 in
06:00 65.6 °F 60.6 °F 29.89 in Calm     84 % 0.00 in
06:05 65.4 °F 60.4 °F 29.89 in NE 1.2 mph   84 % 0.00 in
06:10 65.3 °F 60.7 °F 29.89 in Calm     85 % 0.00 in
06:15 65.4 °F 60.8 °F 29.89 in NE 1.2 mph   85 % 0.00 in
06:20 65.4 °F 60.8 °F 29.90 in Calm     85 % 0.00 in
06:25 65.6 °F 60.6 °F 29.90 in Calm     84 % 0.00 in
06:30 65.6 °F 60.6 °F 29.90 in Calm     84 % 0.00 in
06:35 65.9 °F 60.9 °F 29.90 in NE 1.2 mph 1.2 mph 84 % 0.00 in
06:40 66.2 °F 60.9 °F 29.91 in Calm     83 % 0.00 in
06:45 66.8 °F 60.4 °F 29.91 in NE 1.2 mph 1.2 mph 80 % 0.00 in
06:50 67.9 °F 60.8 °F 29.91 in ESE 1.2 mph 1.2 mph 78 % 0.00 in
06:55 68.8 °F 60.9 °F 29.91 in SSE 2.3 mph 2.3 mph 76 % 0.00 in
07:00 69.6 °F 60.9 °F 29.91 in East 1.2 mph 1.2 mph 74 % 0.00 in
07:05 70.2 °F 60.7 °F 29.91 in ENE 2.0 mph 2.0 mph 72 % 0.00 in
07:10 70.8 °F 60.9 °F 29.91 in East 1.2 mph 1.2 mph 71 % 0.00 in
07:15 71.3 °F 61.0 °F 29.91 in East 2.3 mph 2.3 mph 70 % 0.00 in
07:20 71.8 °F 61.1 °F 29.92 in SSE 1.2 mph   69 % 0.00 in
07:23 72.3 °F 61.6 °F 29.92 in SE 2.3 mph 2.3 mph 69 % 0.00 in
07:28 72.7 °F 61.9 °F 29.92 in Calm   0.1 mph 69 % 0.00 in
07:33 73.0 °F 61.8 °F 29.92 in ENE 3.5 mph 3.5 mph 68 % 0.00 in
07:38 73.2 °F 62.0 °F 29.92 in East 4.6 mph 4.6 mph 68 % 0.00 in
07:43 73.4 °F 62.6 °F 29.92 in ESE 2.3 mph 2.3 mph 69 % 0.00 in
07:48 74.0 °F 62.8 °F 29.92 in SSE 2.3 mph 2.3 mph 68 % 0.00 in
07:53 74.9 °F 63.6 °F 29.92 in SE 3.5 mph 3.5 mph 68 % 0.00 in
07:58 75.5 °F 63.8 °F 29.92 in SSW 3.5 mph 3.5 mph 67 % 0.00 in
08:03 76.1 °F 63.9 °F 29.93 in South 2.3 mph 2.3 mph 66 % 0.00 in
08:08 76.7 °F 64.0 °F 29.93 in SSE 3.5 mph 3.5 mph 65 % 0.00 in
08:13 77.4 °F 63.8 °F 29.93 in SSE 3.5 mph 3.5 mph 63 % 0.00 in
08:18 77.9 °F 64.3 °F 29.93 in East 2.3 mph 2.3 mph 63 % 0.00 in
08:23 78.2 °F 63.6 °F 29.93 in SE 3.5 mph 3.5 mph 61 % 0.00 in
08:24 78.2 °F 63.6 °F 29.93 in SSE 3.5 mph 3.5 mph 61 % 0.00 in
08:29 78.5 °F 63.9 °F 29.93 in SE 3.5 mph 3.5 mph 61 % 0.00 in
08:34 79.0 °F 63.9 °F 29.93 in South 4.6 mph 4.6 mph 60 % 0.00 in
08:39 79.6 °F 64.0 °F 29.93 in SSW 2.3 mph 2.3 mph 59 % 0.00 in
08:44 79.9 °F 63.8 °F 29.93 in ESE 5.0 mph 5.0 mph 58 % 0.00 in
08:49 80.2 °F 63.6 °F 29.93 in SSE 2.0 mph 2.0 mph 57 % 0.00 in
08:54 80.7 °F 63.0 °F 29.93 in SSE 3.5 mph 3.5 mph 55 % 0.00 in
08:59 81.2 °F 62.4 °F 29.93 in SE 5.8 mph 5.8 mph 53 % 0.00 in
09:04 81.7 °F 62.4 °F 29.93 in SE 4.0 mph 4.0 mph 52 % 0.00 in
09:09 82.1 °F 62.7 °F 29.93 in SSE 3.5 mph 3.5 mph 52 % 0.00 in
09:14 82.6 °F 61.5 °F 29.93 in SSE 4.6 mph 4.6 mph 49 % 0.00 in
09:19 83.1 °F 62.5 °F 29.93 in SSW 4.6 mph 4.6 mph 50 % 0.00 in
09:24 83.7 °F 62.5 °F 29.93 in ENE 2.3 mph 2.3 mph 49 % 0.00 in
09:29 83.7 °F 61.9 °F 29.93 in SE 4.6 mph 4.6 mph 48 % 0.00 in
09:34 84.0 °F 63.4 °F 29.93 in SSE 3.5 mph 3.5 mph 50 % 0.00 in
09:39 85.0 °F 63.7 °F 29.93 in SSE 1.2 mph 1.2 mph 49 % 0.00 in
09:44 85.3 °F 62.2 °F 29.93 in SSE 6.9 mph 6.9 mph 46 % 0.00 in
09:49 85.5 °F 62.4 °F 29.93 in SSE 4.6 mph 4.6 mph 46 % 0.00 in
09:54 85.6 °F 63.1 °F 29.93 in ESE 5.0 mph 5.0 mph 47 % 0.00 in
09:59 85.9 °F 64.5 °F 29.93 in SE 3.5 mph   49 % 0.00 in
10:04 86.5 °F 63.9 °F 29.92 in East 2.0 mph 2.0 mph 47 % 0.00 in
10:09 86.8 °F 63.5 °F 29.93 in SSE 3.5 mph 3.5 mph 46 % 0.00 in
10:14 87.2 °F 63.3 °F 29.93 in NE 1.2 mph 1.2 mph 45 % 0.00 in
10:19 87.6 °F 63.0 °F 29.93 in SE 4.0 mph 4.0 mph 44 % 0.00 in
10:25 87.5 °F 63.5 °F 29.93 in East 3.5 mph 3.5 mph 45 % 0.00 in
10:30 87.9 °F 63.9 °F 29.92 in SE 1.2 mph 1.2 mph 45 % 0.00 in
10:35 88.3 °F 63.6 °F 29.92 in East 2.3 mph 2.3 mph 44 % 0.00 in
10:40 88.2 °F 64.8 °F 29.92 in SSE 2.3 mph 2.3 mph 46 % 0.00 in
10:45 88.4 °F 65.6 °F 29.92 in SSW 2.3 mph 2.3 mph 47 % 0.00 in
10:50 88.8 °F 64.7 °F 29.92 in SE 1.2 mph   45 % 0.00 in
10:55 89.0 °F 64.9 °F 29.92 in WSW 2.3 mph 2.3 mph 45 % 0.00 in
11:00 89.4 °F 64.6 °F 29.92 in SSE 3.5 mph 3.5 mph 44 % 0.00 in
11:05 89.6 °F 65.4 °F 29.92 in SE 2.3 mph 2.3 mph 45 % 0.00 in
11:10 90.0 °F 65.8 °F 29.92 in NW 2.3 mph 2.3 mph 45 % 0.00 in
11:15 90.4 °F 65.5 °F 29.92 in ESE 2.3 mph 2.3 mph 44 % 0.00 in
11:17 90.6 °F 65.7 °F 29.92 in North 2.3 mph 2.3 mph 44 % 0.00 in
11:22 90.6 °F 65.0 °F 29.91 in NW 2.3 mph 2.3 mph 43 % 0.00 in
11:27 91.0 °F 64.7 °F 29.91 in ESE 1.2 mph 1.6 mph 42 % 0.00 in
11:32 91.1 °F 65.5 °F 29.91 in ESE 2.3 mph 2.3 mph 43 % 0.00 in
11:37 91.7 °F 66.7 °F 29.91 in NNW 1.2 mph 1.2 mph 44 % 0.00 in
11:42 91.9 °F 64.8 °F 29.91 in SSW 2.3 mph 2.3 mph 41 % 0.00 in
11:47 92.3 °F 65.2 °F 29.91 in SE 3.5 mph 3.5 mph 41 % 0.00 in
11:52 93.0 °F 66.5 °F 29.91 in SSE 1.2 mph 1.2 mph 42 % 0.00 in
11:58 93.1 °F 64.5 °F 29.91 in NE 2.3 mph 2.3 mph 39 % 0.00 in
12:03 93.5 °F 65.6 °F 29.91 in ENE 1.2 mph 1.2 mph 40 % 0.00 in
12:08 93.7 °F 65.0 °F 29.91 in SE 3.5 mph 3.5 mph 39 % 0.00 in
12:13 93.5 °F 63.3 °F 29.90 in WNW 2.3 mph 2.3 mph 37 % 0.00 in
12:18 93.4 °F 63.2 °F 29.91 in NNW 2.3 mph 2.3 mph 37 % 0.00 in
12:23 93.5 °F 63.3 °F 29.90 in NNE 2.3 mph 2.3 mph 37 % 0.00 in
12:28 94.0 °F 63.0 °F 29.90 in SE 1.2 mph 1.2 mph 36 % 0.00 in
12:33 94.0 °F 63.0 °F 29.90 in NW 2.3 mph 2.3 mph 36 % 0.00 in
12:38 94.4 °F 66.4 °F 29.90 in East 2.3 mph 2.3 mph 40 % 0.00 in
12:43 95.0 °F 65.4 °F 29.90 in NW 1.2 mph 1.2 mph 38 % 0.00 in
12:48 94.8 °F 66.7 °F 29.89 in North 1.2 mph 1.2 mph 40 % 0.00 in
12:53 95.6 °F 66.7 °F 29.89 in SSE 1.2 mph   39 % 0.00 in
12:58 96.2 °F 65.7 °F 29.89 in ESE 2.3 mph 2.3 mph 37 % 0.00 in
13:03 96.3 °F 68.1 °F 29.89 in SSW 1.2 mph   40 % 0.00 in
13:08 96.8 °F 66.2 °F 29.89 in ENE 2.0 mph 2.0 mph 37 % 0.00 in
13:13 96.9 °F 65.5 °F 29.89 in NW 2.3 mph 2.3 mph 36 % 0.00 in
13:18 96.7 °F 64.5 °F 29.88 in NNW 1.2 mph 1.2 mph 35 % 0.00 in
13:23 97.0 °F 66.4 °F 29.88 in WNW 2.3 mph 2.3 mph 37 % 0.00 in
13:28 97.0 °F 63.1 °F 29.88 in NW 3.5 mph 3.5 mph 33 % 0.00 in
13:33 97.1 °F 60.5 °F 29.88 in NW 2.0 mph 2.0 mph 30 % 0.00 in
13:38 96.7 °F 62.0 °F 29.88 in North 1.2 mph   32 % 0.00 in
13:43 97.7 °F 58.1 °F 29.88 in NW 2.3 mph 2.3 mph 27 % 0.00 in
13:48 97.9 °F 61.2 °F 29.87 in SSW 1.2 mph 1.2 mph 30 % 0.00 in
13:53 98.9 °F 63.9 °F 29.87 in SSE 1.2 mph 1.2 mph 32 % 0.00 in
13:58 98.6 °F 63.6 °F 29.87 in SSE 1.2 mph 1.2 mph 32 % 0.00 in
14:03 99.4 °F 63.4 °F 29.87 in SE 3.5 mph 3.5 mph 31 % 0.00 in
14:08 99.9 °F 62.9 °F 29.87 in NW 2.3 mph 2.3 mph 30 % 0.00 in
14:13 100.2 °F 64.1 °F 29.87 in SE 2.3 mph 2.3 mph 31 % 0.00 in
14:18 100.4 °F 62.4 °F 29.86 in North 1.2 mph 1.2 mph 29 % 0.00 in
14:23 100.5 °F 61.5 °F 29.86 in North 3.5 mph 3.5 mph 28 % 0.00 in
14:26 100.1 °F 61.1 °F 29.86 in ESE 2.3 mph 2.3 mph 28 % 0.00 in
14:31 100.4 °F 61.4 °F 29.86 in West 1.2 mph 1.2 mph 28 % 0.00 in
14:37 99.6 °F 58.6 °F 29.85 in NW 3.5 mph 3.5 mph 26 % 0.00 in
14:42 99.2 °F 59.3 °F 29.85 in NNW 2.3 mph 2.3 mph 27 % 0.00 in
14:47 99.8 °F 58.8 °F 29.85 in ENE 1.2 mph 1.2 mph 26 % 0.00 in
14:52 100.2 °F 60.2 °F 29.85 in West 2.3 mph 2.3 mph 27 % 0.00 in
14:58 100.4 °F 60.4 °F 29.85 in NW 2.3 mph 2.3 mph 27 % 0.00 in
15:03 100.1 °F 58.0 °F 29.84 in NW 2.0 mph 2.0 mph 25 % 0.00 in
15:08 100.0 °F 59.0 °F 29.84 in NW 2.3 mph 2.3 mph 26 % 0.00 in
15:13 99.8 °F 58.8 °F 29.84 in WNW 2.3 mph 2.3 mph 26 % 0.00 in
15:19 100.3 °F 60.3 °F 29.84 in NW 2.3 mph 2.3 mph 27 % 0.00 in
15:24 100.5 °F 58.3 °F 29.84 in WNW 1.2 mph   25 % 0.00 in
15:25 100.6 °F 58.4 °F 29.84 in Calm     25 % 0.00 in
15:30 100.5 °F 58.3 °F 29.84 in North 2.3 mph 2.3 mph 25 % 0.00 in
15:35 100.5 °F 58.3 °F 29.83 in WSW 2.3 mph 2.3 mph 25 % 0.00 in
15:40 100.7 °F 59.6 °F 29.83 in NW 3.5 mph 3.5 mph 26 % 0.00 in
15:45 100.8 °F 58.5 °F 29.83 in NW 2.3 mph 2.3 mph 25 % 0.00 in
15:50 101.1 °F 58.8 °F 29.83 in NW 1.0 mph 1.0 mph 25 % 0.00 in
15:55 101.4 °F 59.0 °F 29.83 in NW 5.8 mph 5.8 mph 25 % 0.00 in
16:01 101.0 °F 57.6 °F 29.83 in NNW 4.6 mph 4.6 mph 24 % 0.00 in
16:06 100.7 °F 59.6 °F 29.83 in NW 2.0 mph 2.1 mph 26 % 0.00 in
16:11 100.8 °F 59.6 °F 29.82 in WNW 2.3 mph 2.3 mph 26 % 0.00 in
16:16 101.7 °F 59.3 °F 29.82 in NW 2.3 mph 2.3 mph 25 % 0.00 in
16:21 101.2 °F 57.7 °F 29.82 in Calm     24 % 0.00 in
16:26 101.5 °F 60.2 °F 29.82 in WNW 3.5 mph 3.5 mph 26 % 0.00 in
16:31 101.2 °F 60.0 °F 29.82 in North 2.3 mph 2.3 mph 26 % 0.00 in
16:36 101.4 °F 62.2 °F 29.81 in NW 1.2 mph 1.2 mph 28 % 0.00 in
16:41 101.2 °F 62.1 °F 29.81 in NW 3.5 mph 3.5 mph 28 % 0.00 in
16:46 101.1 °F 59.9 °F 29.81 in NW 3.5 mph 3.5 mph 26 % 0.00 in
16:51 100.8 °F 59.6 °F 29.81 in WNW 2.3 mph 2.3 mph 26 % 0.00 in
16:56 101.0 °F 60.9 °F 29.80 in Calm     27 % 0.00 in
17:01 101.6 °F 62.4 °F 29.80 in WNW 1.2 mph 1.2 mph 28 % 0.00 in
17:06 102.1 °F 62.8 °F 29.80 in NW 1.2 mph 1.2 mph 28 % 0.00 in
17:09 102.2 °F 59.7 °F 29.80 in NW 3.5 mph 3.5 mph 25 % 0.00 in
17:14 102.0 °F 59.5 °F 29.80 in WNW 2.3 mph 2.3 mph 25 % 0.00 in
17:19 101.9 °F 59.5 °F 29.80 in NE 2.3 mph 2.3 mph 25 % 0.00 in
17:24 102.1 °F 59.6 °F 29.80 in NW 1.2 mph 1.2 mph 25 % 0.00 in
17:29 102.0 °F 60.7 °F 29.80 in West 3.5 mph 3.5 mph 26 % 0.00 in
17:34 101.7 °F 58.2 °F 29.79 in NW 3.5 mph 3.5 mph 24 % 0.00 in
17:39 101.7 °F 59.3 °F 29.79 in NW 3.5 mph 3.5 mph 25 % 0.00 in
17:44 101.5 °F 56.8 °F 29.79 in NNW 3.5 mph 3.5 mph 23 % 0.00 in
17:49 101.5 °F 56.8 °F 29.79 in NW 2.3 mph 2.3 mph 23 % 0.00 in
17:54 101.3 °F 55.4 °F 29.79 in NW 5.0 mph 5.0 mph 22 % 0.00 in
17:59 101.2 °F 55.3 °F 29.79 in NNW 2.3 mph 2.3 mph 22 % 0.00 in
18:04 100.9 °F 53.8 °F 29.79 in WNW 2.3 mph 2.3 mph 21 % 0.00 in
18:09 100.7 °F 52.3 °F 29.79 in WNW 3.5 mph 3.5 mph 20 % 0.00 in
18:14 100.6 °F 49.4 °F 29.79 in WNW 2.3 mph 2.3 mph 18 % 0.00 in
18:19 100.5 °F 47.8 °F 29.79 in NNW 3.5 mph 3.5 mph 17 % 0.00 in
18:24 100.3 °F 46.0 °F 29.79 in NW 3.5 mph 3.5 mph 16 % 0.00 in
18:29 100.2 °F 44.2 °F 29.79 in NW 3.5 mph 3.5 mph 15 % 0.00 in
18:34 99.9 °F 44.0 °F 29.79 in NW 3.5 mph 3.5 mph 15 % 0.00 in
18:35 99.9 °F 47.3 °F 29.79 in NW 3.5 mph 3.5 mph 17 % 0.00 in
18:40 99.8 °F 48.7 °F 29.78 in NW 2.3 mph 2.3 mph 18 % 0.00 in
18:41 99.8 °F 48.7 °F 29.79 in NW 2.3 mph 2.3 mph 18 % 0.00 in
18:46 99.6 °F 45.4 °F 29.78 in NW 3.5 mph 3.5 mph 16 % 0.00 in
18:51 99.3 °F 46.8 °F 29.78 in WNW 3.5 mph 3.5 mph 17 % 0.00 in
18:56 99.1 °F 48.2 °F 29.78 in WNW 1.2 mph 1.2 mph 18 % 0.00 in
19:01 98.7 °F 49.3 °F 29.78 in NW 1.2 mph 1.2 mph 19 % 0.00 in
19:06 98.4 °F 49.0 °F 29.78 in NW 3.5 mph 3.5 mph 19 % 0.00 in
19:11 98.2 °F 50.3 °F 29.78 in NW 1.2 mph 1.2 mph 20 % 0.00 in
19:16 98.2 °F 51.6 °F 29.78 in NW 1.2 mph 1.2 mph 21 % 0.00 in
19:21 97.6 °F 53.6 °F 29.78 in WNW 1.2 mph   23 % 0.00 in
19:26 97.0 °F 53.1 °F 29.78 in NW 1.2 mph 1.2 mph 23 % 0.00 in
19:31 96.4 °F 52.6 °F 29.78 in Calm     23 % 0.00 in
19:36 95.9 °F 53.3 °F 29.78 in NW 1.2 mph 1.2 mph 24 % 0.00 in
19:41 95.6 °F 53.1 °F 29.78 in NW 1.0 mph 1.0 mph 24 % 0.00 in
19:46 95.4 °F 51.7 °F 29.78 in North 2.3 mph 2.3 mph 23 % 0.00 in
19:51 95.2 °F 52.7 °F 29.78 in NW 1.2 mph 1.2 mph 24 % 0.00 in
19:53 95.2 °F 52.7 °F 29.78 in NW 1.2 mph   24 % 0.00 in
19:58 94.9 °F 52.5 °F 29.79 in Calm     24 % 0.00 in
20:03 94.7 °F 52.3 °F 29.78 in Calm     24 % 0.00 in
20:08 94.3 °F 53.1 °F 29.78 in Calm     25 % 0.00 in
20:13 93.6 °F 52.5 °F 29.78 in Calm     25 % 0.00 in
20:18 93.0 °F 50.9 °F 29.78 in Calm     24 % 0.00 in
20:23 92.3 °F 55.4 °F 29.78 in Calm     29 % 0.00 in
20:28 91.4 °F 55.6 °F 29.78 in Calm     30 % 0.00 in
20:33 90.2 °F 55.5 °F 29.79 in Calm     31 % 0.00 in
20:39 88.9 °F 58.5 °F 29.79 in Calm     36 % 0.00 in
20:44 87.6 °F 57.3 °F 29.79 in Calm     36 % 0.00 in
20:49 86.7 °F 57.3 °F 29.79 in Calm     37 % 0.00 in
20:54 86.3 °F 58.4 °F 29.79 in SSW 1.2 mph   39 % 0.00 in
20:59 85.9 °F 58.1 °F 29.79 in Calm     39 % 0.00 in
21:04 85.6 °F 57.8 °F 29.79 in Calm     39 % 0.00 in
21:09 85.3 °F 56.8 °F 29.80 in Calm     38 % 0.00 in
21:14 85.2 °F 58.2 °F 29.80 in Calm     40 % 0.00 in
21:19 84.9 °F 58.6 °F 29.79 in Calm     41 % 0.00 in
21:24 84.8 °F 57.8 °F 29.80 in Calm     40 % 0.00 in
21:29 84.3 °F 58.7 °F 29.80 in Calm     42 % 0.00 in
21:34 83.5 °F 58.6 °F 29.80 in Calm     43 % 0.00 in
21:39 83.0 °F 58.2 °F 29.80 in Calm     43 % 0.00 in
21:44 82.6 °F 60.3 °F 29.80 in Calm     47 % 0.00 in
21:49 82.4 °F 58.9 °F 29.81 in Calm     45 % 0.00 in
21:51 82.4 °F 60.1 °F 29.81 in Calm     47 % 0.00 in
21:56 82.2 °F 58.7 °F 29.81 in Calm     45 % 0.00 in
22:01 82.1 °F 59.3 °F 29.81 in Calm     46 % 0.00 in
22:06 82.0 °F 59.2 °F 29.81 in Calm     46 % 0.00 in
22:11 81.8 °F 60.2 °F 29.81 in Calm     48 % 0.00 in
22:16 81.7 °F 60.1 °F 29.81 in Calm     48 % 0.00 in
22:21 81.4 °F 59.8 °F 29.81 in Calm     48 % 0.00 in
22:26 81.3 °F 59.7 °F 29.81 in Calm     48 % 0.00 in
22:31 81.1 °F 61.8 °F 29.81 in Calm     52 % 0.00 in
22:36 80.7 °F 62.5 °F 29.81 in Calm     54 % 0.00 in
22:41 80.1 °F 61.4 °F 29.81 in Calm     53 % 0.00 in
22:46 79.5 °F 61.4 °F 29.82 in Calm     54 % 0.00 in
22:51 78.9 °F 62.4 °F 29.82 in Calm     57 % 0.00 in
22:56 78.6 °F 61.1 °F 29.81 in Calm     55 % 0.00 in
23:01 78.6 °F 60.0 °F 29.81 in Calm     53 % 0.00 in
23:06 78.6 °F 60.0 °F 29.82 in Calm     53 % 0.00 in
23:11 78.4 °F 61.9 °F 29.82 in Calm     57 % 0.00 in
23:16 77.9 °F 59.9 °F 29.82 in Calm     54 % 0.00 in
23:21 77.9 °F 61.4 °F 29.82 in Calm     57 % 0.00 in
23:26 77.8 °F 59.8 °F 29.82 in Calm     54 % 0.00 in
23:31 77.9 °F 60.4 °F 29.82 in Calm     55 % 0.00 in
23:36 77.9 °F 60.9 °F 29.82 in SSE 1.0 mph   56 % 0.00 in
23:41 76.4 °F 60.0 °F 29.83 in Calm     57 % 0.00 in
23:46 75.4 °F 61.0 °F 29.83 in Calm     61 % 0.00 in
23:51 74.9 °F 61.5 °F 29.83 in Calm     63 % 0.00 in
23:56 74.7 °F 61.7 °F 29.83 in Calm     64 % 0.00 in
Park Place, Exeter, Tulare County, California, USA
Compliments of Weather Underground - 2.75 mb